createdAt,value
2018-12-15T00:01:43.072Z,38.63
2018-12-15T00:04:12.311Z,34.33
2018-12-15T00:06:41.508Z,32.03
2018-12-15T00:09:10.874Z,30.33
2018-12-15T00:11:39.908Z,17.03
2018-12-15T00:14:09.159Z,37.43
2018-12-15T00:16:38.513Z,32.63
2018-12-15T00:19:07.830Z,30.47
2018-12-15T00:21:37.123Z,34.47
2018-12-15T00:24:06.495Z,41.27
2018-12-15T00:26:35.644Z,29.93
2018-12-15T00:29:05.167Z,33.53
2018-12-15T00:31:34.350Z,31.93
2018-12-15T00:34:03.456Z,33.73
2018-12-15T00:36:32.764Z,36.23
2018-12-15T00:39:01.995Z,33.97
2018-12-15T00:41:31.470Z,36.43
2018-12-15T00:44:00.656Z,33.40
2018-12-15T00:46:29.892Z,32.30
2018-12-15T00:48:58.989Z,42.03
2018-12-15T00:51:28.163Z,40.07
2018-12-15T00:53:57.433Z,36.23
2018-12-15T00:56:26.781Z,36.03
2018-12-15T00:58:56.005Z,36.00
2018-12-15T01:01:25.039Z,27.17
2018-12-15T01:03:54.131Z,19.97
2018-12-15T01:06:23.196Z,29.13
2018-12-15T01:08:52.508Z,36.57
2018-12-15T01:11:21.620Z,33.33
2018-12-15T01:13:50.757Z,35.87
2018-12-15T01:16:20.291Z,35.63
2018-12-15T01:18:49.377Z,34.03
2018-12-15T01:21:18.777Z,17.67
2018-12-15T01:23:47.944Z,45.60
2018-12-15T01:26:17.323Z,38.80
2018-12-15T01:28:46.561Z,35.73
2018-12-15T01:31:15.890Z,38.73
2018-12-15T01:33:45.401Z,33.93
2018-12-15T01:36:14.886Z,37.83
2018-12-15T01:38:44.048Z,41.17
2018-12-15T01:41:13.211Z,36.30
2018-12-15T01:43:42.380Z,38.13
2018-12-15T01:46:11.800Z,39.27
2018-12-15T01:48:41.126Z,34.30
2018-12-15T01:51:10.373Z,38.20
2018-12-15T01:53:39.826Z,34.63
2018-12-15T01:56:09.169Z,38.43
2018-12-15T01:58:38.416Z,37.50
2018-12-15T02:01:07.648Z,33.90
2018-12-15T02:03:36.802Z,40.73
2018-12-15T02:06:06.088Z,39.53
2018-12-15T02:08:35.266Z,36.80
2018-12-15T02:11:04.466Z,35.00
2018-12-15T02:13:33.781Z,40.73
2018-12-15T02:16:03.170Z,34.97
2018-12-15T02:18:32.447Z,33.43
2018-12-15T02:21:08.510Z,36.07
2018-12-15T02:23:37.667Z,37.23
2018-12-15T02:26:06.962Z,34.57
2018-12-15T02:28:36.392Z,38.30
2018-12-15T02:31:05.744Z,35.40
2018-12-15T02:33:35.108Z,34.67
2018-12-15T02:36:04.406Z,37.00
2018-12-15T02:38:33.487Z,34.67
2018-12-15T02:41:02.719Z,44.23
2018-12-15T02:43:31.966Z,33.97
2018-12-15T02:46:01.038Z,36.27
2018-12-15T02:48:30.248Z,36.07
2018-12-15T02:50:59.603Z,33.50
2018-12-15T02:53:28.993Z,38.17
2018-12-15T02:55:58.751Z,37.33
2018-12-15T02:58:28.220Z,40.10
2018-12-15T03:00:57.367Z,35.23
2018-12-15T03:03:26.453Z,36.80
2018-12-15T03:05:56.047Z,38.87
2018-12-15T03:08:25.073Z,37.17
2018-12-15T03:10:54.288Z,34.67
2018-12-15T03:13:23.632Z,31.40
2018-12-15T03:15:53.002Z,37.03
2018-12-15T03:18:22.245Z,37.63
2018-12-15T03:21:02.346Z,36.60
2018-12-15T03:23:31.602Z,35.23
2018-12-15T03:26:00.850Z,33.47
2018-12-15T03:28:29.992Z,36.77
2018-12-15T03:30:59.420Z,34.03
2018-12-15T03:33:28.541Z,32.43
2018-12-15T03:35:57.788Z,39.93
2018-12-15T03:38:27.134Z,38.70
2018-12-15T03:40:56.458Z,34.37
2018-12-15T03:43:25.602Z,30.03
2018-12-15T03:45:54.749Z,37.00
2018-12-15T03:48:24.031Z,37.93
2018-12-15T03:50:53.252Z,40.00
2018-12-15T03:53:22.431Z,39.63
2018-12-15T03:55:51.683Z,41.20
2018-12-15T03:58:21.083Z,37.40
2018-12-15T04:00:50.284Z,37.87
2018-12-15T04:03:19.667Z,42.47
2018-12-15T04:05:48.897Z,37.23
2018-12-15T04:08:17.993Z,38.60
2018-12-15T04:10:47.217Z,37.43
2018-12-15T04:13:16.597Z,36.53
2018-12-15T04:15:45.896Z,37.47
2018-12-15T04:18:15.227Z,43.33
2018-12-15T04:20:44.471Z,30.87
2018-12-15T04:23:13.691Z,37.53
2018-12-15T04:25:43.080Z,38.40
2018-12-15T04:28:12.377Z,40.50
2018-12-15T04:30:41.513Z,37.23
2018-12-15T04:33:10.716Z,40.23
2018-12-15T04:35:39.950Z,39.03
2018-12-15T04:38:09.162Z,40.80
2018-12-15T04:40:39.134Z,40.50
2018-12-15T04:43:08.204Z,38.67
2018-12-15T04:45:37.544Z,38.93
2018-12-15T04:48:11.104Z,43.03
2018-12-15T04:50:40.956Z,38.97
2018-12-15T04:53:10.221Z,35.27
2018-12-15T04:55:39.481Z,35.90
2018-12-15T04:58:08.761Z,45.83
2018-12-15T05:00:37.916Z,39.07
2018-12-15T05:03:07.215Z,45.27
2018-12-15T05:05:36.773Z,39.80
2018-12-15T05:08:05.987Z,35.83
2018-12-15T05:10:35.041Z,45.23
2018-12-15T05:13:04.174Z,41.57
2018-12-15T05:15:33.305Z,42.53
2018-12-15T05:18:02.564Z,44.50
2018-12-15T05:20:31.865Z,43.87
2018-12-15T05:23:01.102Z,42.77
2018-12-15T05:25:30.242Z,42.70
2018-12-15T05:27:59.466Z,50.17
2018-12-15T05:30:28.701Z,41.83
2018-12-15T05:32:57.942Z,40.77
2018-12-15T05:35:27.010Z,39.00
2018-12-15T05:37:56.275Z,40.27
2018-12-15T05:40:25.365Z,38.40
2018-12-15T05:42:54.478Z,39.57
2018-12-15T05:45:24.004Z,45.13
2018-12-15T05:47:53.528Z,43.87
2018-12-15T05:50:22.850Z,45.90
2018-12-15T05:52:52.256Z,44.43
2018-12-15T05:55:21.600Z,46.37
2018-12-15T05:57:51.280Z,42.60
2018-12-15T06:00:20.734Z,40.50
2018-12-15T06:02:49.993Z,34.93
2018-12-15T06:05:19.398Z,39.23
2018-12-15T06:07:48.928Z,33.67
2018-12-15T06:10:18.237Z,41.57
2018-12-15T06:12:47.354Z,38.63
2018-12-15T06:15:16.494Z,37.27
2018-12-15T06:17:45.678Z,41.30
2018-12-15T06:20:14.964Z,44.73
2018-12-15T06:22:44.102Z,39.43
2018-12-15T06:25:13.325Z,39.40
2018-12-15T06:27:42.583Z,37.13
2018-12-15T06:30:12.020Z,41.33
2018-12-15T06:32:41.043Z,40.43
2018-12-15T06:35:10.492Z,26.67
2018-12-15T06:37:39.684Z,39.13
2018-12-15T06:40:08.962Z,33.03
2018-12-15T06:42:38.369Z,40.33
2018-12-15T06:45:07.992Z,46.20
2018-12-15T06:47:37.028Z,47.60
2018-12-15T06:50:06.445Z,46.60
2018-12-15T06:52:35.626Z,41.00
2018-12-15T06:55:08.052Z,43.87
2018-12-15T06:57:37.110Z,42.73
2018-12-15T07:00:06.679Z,48.10
2018-12-15T07:02:35.997Z,34.17
2018-12-15T07:05:05.836Z,34.33
2018-12-15T07:07:34.868Z,35.80
2018-12-15T07:10:04.306Z,39.50
2018-12-15T07:12:33.472Z,41.13
2018-12-15T07:15:02.586Z,32.63
2018-12-15T07:17:31.942Z,34.30
2018-12-15T07:20:01.162Z,43.77
2018-12-15T07:22:30.642Z,41.03
2018-12-15T07:24:59.808Z,37.43
2018-12-15T07:27:28.974Z,42.20
2018-12-15T07:29:58.374Z,37.13
2018-12-15T07:32:27.437Z,43.10
2018-12-15T07:35:00.871Z,32.43
2018-12-15T07:37:27.967Z,29.30
2018-12-15T07:39:57.489Z,36.10
2018-12-15T07:42:27.585Z,36.87
2018-12-15T07:44:57.472Z,33.87
2018-12-15T07:47:27.407Z,36.20
2018-12-15T07:49:57.292Z,33.47
2018-12-15T07:52:28.045Z,34.47
2018-12-15T07:54:58.967Z,30.83
2018-12-15T07:57:29.777Z,34.23
2018-12-15T08:00:00.515Z,36.20
2018-12-15T08:02:30.945Z,88.70
2018-12-15T08:05:01.466Z,65.37
2018-12-15T08:07:32.232Z,91.07
2018-12-15T08:10:05.514Z,36.13
2018-12-15T08:12:40.417Z,35.57
2018-12-15T08:15:10.975Z,60.77
2018-12-15T08:17:40.955Z,69.13
2018-12-15T08:20:11.903Z,37.67
2018-12-15T08:22:43.018Z,31.77
2018-12-15T08:25:13.776Z,22.47
2018-12-15T08:27:44.756Z,25.03
2018-12-15T08:30:16.212Z,34.87
2018-12-15T08:32:46.515Z,33.87
2018-12-15T08:35:16.670Z,28.33
2018-12-15T08:37:46.379Z,20.13
2018-12-15T08:40:15.900Z,23.13
2018-12-15T08:42:45.662Z,26.10
2018-12-15T08:45:15.566Z,30.53
2018-12-15T08:47:45.590Z,32.70
2018-12-15T08:50:16.090Z,27.07
2018-12-15T08:52:45.857Z,28.33
2018-12-15T08:55:15.444Z,26.13
2018-12-15T08:57:45.353Z,24.97
2018-12-15T09:00:15.520Z,25.47
2018-12-15T09:02:45.252Z,15.80
2018-12-15T09:05:15.902Z,23.00
2018-12-15T09:07:45.711Z,27.30
2018-12-15T09:10:15.418Z,22.47
2018-12-15T09:12:45.352Z,21.57
2018-12-15T09:15:14.860Z,26.60
2018-12-15T09:17:44.494Z,23.60
2018-12-15T09:20:13.936Z,19.40
2018-12-15T09:22:43.237Z,16.83
2018-12-15T09:25:12.806Z,20.53
2018-12-15T09:27:42.382Z,24.17
2018-12-15T09:30:12.010Z,24.87
2018-12-15T09:32:41.608Z,20.63
2018-12-15T09:35:11.870Z,24.30
2018-12-15T09:37:41.236Z,22.17
2018-12-15T09:40:10.844Z,24.00
2018-12-15T09:42:41.044Z,13.10
2018-12-15T09:45:10.912Z,16.80
2018-12-15T09:47:40.409Z,19.40
2018-12-15T09:50:10.165Z,14.87
2018-12-15T09:52:39.902Z,13.50
2018-12-15T09:55:09.431Z,20.40
2018-12-15T09:57:39.307Z,14.13
2018-12-15T10:00:09.187Z,16.63
2018-12-15T10:02:39.111Z,19.17
2018-12-15T10:05:08.646Z,18.77
2018-12-15T10:07:38.256Z,21.50
2018-12-15T10:10:07.887Z,19.80
2018-12-15T10:12:37.642Z,19.70
2018-12-15T10:15:07.594Z,103.17
2018-12-15T10:17:37.355Z,52.83
2018-12-15T10:20:07.465Z,46.00
2018-12-15T10:22:36.995Z,18.80
2018-12-15T10:25:07.109Z,17.20
2018-12-15T10:27:36.776Z,22.90
2018-12-15T10:30:12.664Z,18.73
2018-12-15T10:32:47.657Z,11.93
2018-12-15T10:35:17.283Z,9.40
2018-12-15T10:37:47.568Z,16.17
2018-12-15T10:40:17.523Z,19.87
2018-12-15T10:42:47.176Z,11.80
2018-12-15T10:45:17.138Z,19.33
2018-12-15T10:47:46.879Z,16.53
2018-12-15T10:50:16.781Z,23.13
2018-12-15T10:52:46.244Z,20.53
2018-12-15T10:55:15.406Z,16.27
2018-12-15T10:57:46.208Z,20.23
2018-12-15T11:00:22.030Z,20.67
2018-12-15T11:02:51.682Z,13.03
2018-12-15T11:05:21.153Z,8.90
2018-12-15T11:07:50.463Z,22.23
2018-12-15T11:10:20.749Z,20.33
2018-12-15T11:12:53.048Z,21.27
2018-12-15T11:15:23.526Z,17.27
2018-12-15T11:17:56.998Z,17.50
2018-12-15T11:20:28.349Z,15.60
2018-12-15T11:22:58.754Z,28.30
2018-12-15T11:25:29.081Z,22.37
2018-12-15T11:27:58.881Z,24.77
2018-12-15T11:30:29.174Z,13.47
2018-12-15T11:32:59.340Z,12.30
2018-12-15T11:35:29.466Z,18.20
2018-12-15T11:37:59.278Z,16.33
2018-12-15T11:40:29.063Z,24.53
2018-12-15T11:42:59.291Z,16.17
2018-12-15T11:45:29.150Z,26.13
2018-12-15T11:47:59.201Z,16.93
2018-12-15T11:50:28.795Z,21.73
2018-12-15T11:52:58.839Z,18.50
2018-12-15T11:55:28.297Z,25.30
2018-12-15T11:57:57.886Z,20.57
2018-12-15T12:00:28.254Z,22.40
2018-12-15T12:02:58.033Z,23.03
2018-12-15T12:05:28.251Z,21.10
2018-12-15T12:07:59.388Z,35.97
2018-12-15T12:10:29.578Z,95.50
2018-12-15T12:13:00.599Z,67.60
2018-12-15T12:15:31.288Z,37.57
2018-12-15T12:18:01.244Z,25.67
2018-12-15T12:20:30.984Z,24.27
2018-12-15T12:23:01.805Z,29.87
2018-12-15T12:25:32.071Z,25.63
2018-12-15T12:28:02.432Z,30.17
2018-12-15T12:30:32.820Z,14.87
2018-12-15T12:33:04.991Z,22.20
2018-12-15T12:35:39.322Z,21.67
2018-12-15T12:38:09.664Z,23.17
2018-12-15T12:40:40.471Z,25.07
2018-12-15T12:43:11.081Z,25.10
2018-12-15T12:45:40.702Z,27.70
2018-12-15T12:48:10.964Z,18.97
2018-12-15T12:50:40.777Z,28.57
2018-12-15T12:53:10.947Z,27.90
2018-12-15T12:55:40.910Z,20.77
2018-12-15T12:58:11.680Z,18.73
2018-12-15T13:00:42.096Z,23.73
2018-12-15T13:03:12.338Z,19.60
2018-12-15T13:05:44.013Z,14.77
2018-12-15T13:08:13.815Z,21.77
2018-12-15T13:10:44.401Z,24.17
2018-12-15T13:13:14.687Z,16.00
2018-12-15T13:15:45.254Z,22.37
2018-12-15T13:18:15.314Z,14.00
2018-12-15T13:20:46.549Z,20.00
2018-12-15T13:23:16.923Z,23.77
2018-12-15T13:25:48.254Z,24.63
2018-12-15T13:28:18.651Z,18.80
2018-12-15T13:30:48.278Z,21.87
2018-12-15T13:33:29.387Z,21.30
2018-12-15T13:35:59.443Z,23.70
2018-12-15T13:38:29.158Z,18.10
2018-12-15T13:41:00.216Z,27.60
2018-12-15T13:43:30.291Z,24.13
2018-12-15T13:46:00.299Z,20.13
2018-12-15T13:48:30.032Z,13.90
2018-12-15T13:51:00.430Z,21.90
2018-12-15T13:53:31.711Z,22.80
2018-12-15T13:56:02.016Z,21.93
2018-12-15T13:58:32.000Z,16.97
2018-12-15T14:01:01.734Z,18.13
2018-12-15T14:03:31.235Z,21.67
2018-12-15T14:06:01.126Z,192.87
2018-12-15T14:08:31.089Z,172.20
2018-12-15T14:11:01.516Z,165.93
2018-12-15T14:13:32.278Z,282.00
2018-12-15T14:16:03.498Z,34.37
2018-12-15T14:18:33.473Z,22.73
2018-12-15T14:21:03.506Z,21.63
2018-12-15T14:23:33.566Z,24.23
2018-12-15T14:26:05.616Z,17.43
2018-12-15T14:28:36.230Z,18.83
2018-12-15T14:31:06.307Z,17.40
2018-12-15T14:33:37.577Z,15.30
2018-12-15T14:36:07.937Z,11.97
2018-12-15T14:38:38.059Z,19.37
2018-12-15T14:41:08.711Z,21.23
2018-12-15T14:43:38.401Z,16.03
2018-12-15T14:46:07.745Z,15.83
2018-12-15T14:48:37.594Z,12.40
2018-12-15T14:51:07.194Z,16.27
2018-12-15T14:53:37.097Z,11.17
2018-12-15T14:56:06.257Z,22.00
2018-12-15T14:58:35.406Z,18.70
2018-12-15T15:01:05.121Z,12.87
2018-12-15T15:03:34.476Z,20.97
2018-12-15T15:06:04.139Z,17.47
2018-12-15T15:08:33.381Z,20.70
2018-12-15T15:11:03.017Z,21.70
2018-12-15T15:13:34.723Z,22.53
2018-12-15T15:16:04.085Z,8.57
2018-12-15T15:18:33.368Z,21.77
2018-12-15T15:21:02.436Z,16.90
2018-12-15T15:23:31.630Z,23.17
2018-12-15T15:26:00.991Z,7.93
2018-12-15T15:28:30.395Z,23.83
2018-12-15T15:30:59.647Z,17.27
2018-12-15T15:33:28.840Z,22.97
2018-12-15T15:35:57.918Z,30.00
2018-12-15T15:38:27.286Z,22.20
2018-12-15T15:40:56.780Z,19.87
2018-12-15T15:43:26.127Z,17.37
2018-12-15T15:45:55.502Z,18.33
2018-12-15T15:48:24.686Z,14.17
2018-12-15T15:50:54.105Z,23.67
2018-12-15T15:53:23.536Z,22.73
2018-12-15T15:55:53.217Z,21.27
2018-12-15T15:58:22.462Z,22.60
2018-12-15T16:00:51.813Z,24.43
2018-12-15T16:03:20.971Z,23.40
2018-12-15T16:05:50.828Z,23.13
2018-12-15T16:08:20.062Z,23.63
2018-12-15T16:10:49.831Z,24.97
2018-12-15T16:13:19.914Z,17.47
2018-12-15T16:15:49.671Z,21.03
2018-12-15T16:18:19.035Z,19.10
2018-12-15T16:20:48.596Z,27.83
2018-12-15T16:23:18.354Z,20.97
2018-12-15T16:25:47.852Z,15.00
2018-12-15T16:28:17.371Z,19.27
2018-12-15T16:30:47.063Z,19.77
2018-12-15T16:33:16.597Z,22.17
2018-12-15T16:35:45.821Z,19.10
2018-12-15T16:38:15.511Z,22.20
2018-12-15T16:40:45.119Z,32.67
2018-12-15T16:43:14.592Z,28.93
2018-12-15T16:45:43.928Z,23.07
2018-12-15T16:48:13.618Z,30.63
2018-12-15T16:50:49.760Z,31.57
2018-12-15T16:53:14.838Z,34.90
2018-12-15T16:55:44.224Z,23.17
2018-12-15T16:58:13.555Z,22.57
2018-12-15T17:00:43.594Z,34.40
2018-12-15T17:03:13.409Z,20.53
2018-12-15T17:05:43.056Z,24.37
2018-12-15T17:08:13.560Z,26.50
2018-12-15T17:10:43.158Z,34.00
2018-12-15T17:13:13.026Z,27.63
2018-12-15T17:15:42.583Z,24.63
2018-12-15T17:18:12.658Z,27.30
2018-12-15T17:20:42.610Z,32.60
2018-12-15T17:23:12.206Z,18.47
2018-12-15T17:25:41.569Z,28.87
2018-12-15T17:28:11.093Z,19.23
2018-12-15T17:30:40.605Z,24.10
2018-12-15T17:33:10.551Z,20.13
2018-12-15T17:35:40.229Z,25.33
2018-12-15T17:38:09.847Z,22.60
2018-12-15T17:40:39.300Z,19.57
2018-12-15T17:43:08.461Z,28.87
2018-12-15T17:45:37.923Z,24.40
2018-12-15T17:48:07.524Z,24.87
2018-12-15T17:50:37.110Z,15.20
2018-12-15T17:53:15.483Z,32.77
2018-12-15T17:55:44.564Z,24.67
2018-12-15T17:58:15.048Z,22.10
2018-12-15T18:00:44.652Z,21.73
2018-12-15T18:03:14.106Z,54.20
2018-12-15T18:05:43.796Z,24.13
2018-12-15T18:08:13.012Z,28.80
2018-12-15T18:10:42.635Z,55.63
2018-12-15T18:13:12.116Z,50.73
2018-12-15T18:15:41.744Z,79.00
2018-12-15T18:18:11.476Z,47.23
2018-12-15T18:20:40.893Z,54.47
2018-12-15T18:23:10.162Z,27.70
2018-12-15T18:25:39.990Z,50.23
2018-12-15T18:28:15.041Z,23.00
2018-12-15T18:30:44.171Z,17.23
2018-12-15T18:33:13.982Z,18.07
2018-12-15T18:35:43.124Z,22.13
2018-12-15T18:38:12.545Z,16.27
2018-12-15T18:40:41.532Z,26.90
2018-12-15T18:43:10.527Z,26.83
2018-12-15T18:45:40.040Z,18.10
2018-12-15T18:48:09.602Z,21.43
2018-12-15T18:50:38.462Z,27.73
2018-12-15T18:53:07.862Z,20.80
2018-12-15T18:55:38.213Z,20.47
2018-12-15T18:58:11.596Z,30.87
2018-12-15T19:00:40.615Z,25.07
2018-12-15T19:03:10.105Z,24.83
2018-12-15T19:05:40.110Z,18.87
2018-12-15T19:08:09.737Z,14.63
2018-12-15T19:10:39.239Z,14.60
2018-12-15T19:13:08.617Z,17.83
2018-12-15T19:15:38.287Z,31.30
2018-12-15T19:18:07.736Z,34.40
2018-12-15T19:20:37.417Z,17.20
2018-12-15T19:23:07.193Z,21.97
2018-12-15T19:25:36.653Z,23.53
2018-12-15T19:28:06.007Z,22.40
2018-12-15T19:30:35.203Z,25.80
2018-12-15T19:33:05.217Z,22.03
2018-12-15T19:35:35.751Z,29.07
2018-12-15T19:38:05.066Z,22.57
2018-12-15T19:40:34.696Z,30.33
2018-12-15T19:43:04.245Z,27.27
2018-12-15T19:45:33.874Z,20.43
2018-12-15T19:48:03.113Z,21.57
2018-12-15T19:50:32.758Z,12.20
2018-12-15T19:53:02.088Z,29.17
2018-12-15T19:55:32.094Z,24.63
2018-12-15T19:58:01.631Z,28.10
2018-12-15T20:00:30.899Z,25.50
2018-12-15T20:03:00.198Z,22.93
2018-12-15T20:05:29.672Z,12.53
2018-12-15T20:07:58.831Z,26.30
2018-12-15T20:10:29.742Z,25.87
2018-12-15T20:12:59.877Z,24.03
2018-12-15T20:15:29.684Z,19.83
2018-12-15T20:17:59.438Z,19.40
2018-12-15T20:20:29.304Z,13.73
2018-12-15T20:22:59.192Z,19.43
2018-12-15T20:25:28.900Z,19.93
2018-12-15T20:27:58.730Z,16.13
2018-12-15T20:30:28.410Z,21.87
2018-12-15T20:32:58.927Z,16.40
2018-12-15T20:35:29.663Z,19.50
2018-12-15T20:37:59.210Z,16.57
2018-12-15T20:40:29.142Z,11.70
2018-12-15T20:42:58.827Z,14.37
2018-12-15T20:45:28.531Z,18.50
2018-12-15T20:47:58.785Z,7.43
2018-12-15T20:50:28.684Z,20.20
2018-12-15T20:52:58.594Z,18.83
2018-12-15T20:55:28.399Z,15.00
2018-12-15T20:57:58.032Z,20.00
2018-12-15T21:00:27.621Z,20.83
2018-12-15T21:02:57.588Z,18.90
2018-12-15T21:05:27.014Z,12.80
2018-12-15T21:07:57.117Z,21.23
2018-12-15T21:10:26.664Z,21.30
2018-12-15T21:12:56.088Z,22.17
2018-12-15T21:15:31.225Z,22.50
2018-12-15T21:18:00.872Z,23.73
2018-12-15T21:20:30.323Z,23.73
2018-12-15T21:23:00.095Z,27.23
2018-12-15T21:25:29.992Z,28.70
2018-12-15T21:27:59.952Z,28.17
2018-12-15T21:30:29.709Z,28.50
2018-12-15T21:32:59.256Z,28.07
2018-12-15T21:35:29.178Z,26.37
2018-12-15T21:37:59.018Z,28.67
2018-12-15T21:40:29.450Z,25.13
2018-12-15T21:42:59.457Z,29.40
2018-12-15T21:45:29.151Z,28.17
2018-12-15T21:47:59.127Z,28.83
2018-12-15T21:50:28.627Z,27.37
2018-12-15T21:52:58.413Z,25.03
2018-12-15T21:55:28.034Z,25.10
2018-12-15T21:57:57.897Z,27.80
2018-12-15T22:00:27.507Z,26.10
2018-12-15T22:02:57.084Z,21.07
2018-12-15T22:05:26.401Z,28.17
2018-12-15T22:07:57.140Z,17.77
2018-12-15T22:10:27.131Z,32.60
2018-12-15T22:12:56.398Z,29.83
2018-12-15T22:15:26.090Z,33.43
2018-12-15T22:17:55.840Z,50.20
2018-12-15T22:20:26.020Z,66.03
2018-12-15T22:22:56.142Z,40.77
2018-12-15T22:25:25.511Z,47.03
2018-12-15T22:27:55.115Z,158.40
2018-12-15T22:30:25.920Z,154.67
2018-12-15T22:32:55.429Z,37.63
2018-12-15T22:35:24.994Z,26.23
2018-12-15T22:37:54.615Z,21.73
2018-12-15T22:40:24.068Z,17.93
2018-12-15T22:42:53.388Z,21.60
2018-12-15T22:45:23.180Z,23.67
2018-12-15T22:47:52.625Z,20.40
2018-12-15T22:50:22.771Z,18.90
2018-12-15T22:52:52.599Z,20.50
2018-12-15T22:55:22.295Z,22.77
2018-12-15T22:57:51.911Z,28.20
2018-12-15T23:00:21.967Z,16.23
2018-12-15T23:02:51.131Z,17.97
2018-12-15T23:05:21.119Z,20.90
2018-12-15T23:07:50.875Z,26.57
2018-12-15T23:10:20.807Z,25.87
2018-12-15T23:12:50.716Z,18.90
2018-12-15T23:15:20.785Z,19.87
2018-12-15T23:17:50.705Z,26.03
2018-12-15T23:20:20.020Z,29.47
2018-12-15T23:22:49.703Z,31.30
2018-12-15T23:25:19.489Z,28.60
2018-12-15T23:27:49.319Z,33.17
2018-12-15T23:30:18.796Z,18.40
2018-12-15T23:32:48.458Z,21.63
2018-12-15T23:35:17.615Z,19.77
2018-12-15T23:37:47.520Z,17.50
2018-12-15T23:40:17.057Z,21.33
2018-12-15T23:42:46.615Z,36.80
2018-12-15T23:45:16.276Z,29.60
2018-12-15T23:47:45.705Z,25.73
2018-12-15T23:50:15.216Z,24.40
2018-12-15T23:52:44.945Z,19.43
2018-12-15T23:55:15.031Z,26.03
2018-12-15T23:57:44.819Z,27.67
